Time;durP1;ratioP1;P1;durP2;ratioP2;P2;SDS_P1;SDS_P2;PMS_P1;PMS_P2;Temp;Humidity;BMP_temperature;BMP_pressure;BME280_temperature;BME280_humidity;BME280_pressure;Samples;Min_cycle;Max_cycle;Signal;HPM_P1;HPM_P2
2022/10/03 00:01:53;;;;;;;0.03;0.03;;;15.90;75.80;;;;;;5030215;28;20021;-79
2022/10/03 00:04:48;;;;;;;0.10;0.10;;;15.90;75.80;;;;;;4996973;28;20033;-79
2022/10/03 00:07:32;;;;;;;0.10;0.10;;;15.90;75.80;;;;;;5047548;28;20041;-79
2022/10/03 00:10:16;;;;;;;0.00;0.00;;;15.90;75.70;;;;;;5048156;28;20450;-79
2022/10/03 00:13:00;;;;;;;0.10;0.10;;;16.00;75.70;;;;;;5047881;28;20035;-79
2022/10/03 00:15:55;;;;;;;0.08;0.08;;;16.00;75.60;;;;;;5047869;28;20463;-79
2022/10/03 00:18:37;;;;;;;0.10;0.10;;;16.00;75.60;;;;;;5034491;28;20033;-79
2022/10/03 00:21:34;;;;;;;0.10;0.10;;;16.00;75.50;;;;;;5047370;28;20513;-79
2022/10/03 00:24:24;;;;;;;0.10;0.10;;;16.00;75.50;;;;;;5047285;28;20025;-79
2022/10/03 00:27:05;;;;;;;0.10;0.10;;;16.00;75.50;;;;;;5047612;28;20028;-79
2022/10/03 00:30:01;;;;;;;0.10;0.10;;;16.00;75.50;;;;;;5047785;28;20068;-79
2022/10/03 00:32:42;;;;;;;0.10;0.10;;;15.90;75.60;;;;;;5047492;28;20029;-79
2022/10/03 00:35:21;;;;;;;0.10;0.10;;;15.80;75.60;;;;;;5029437;28;20032;-79
2022/10/03 00:38:23;;;;;;;0.10;0.10;;;15.70;75.80;;;;;;5025973;28;20069;-79
2022/10/03 00:41:20;;;;;;;0.10;0.10;;;15.70;75.90;;;;;;5014807;28;20034;-78
2022/10/03 00:44:15;;;;;;;0.20;0.20;;;15.60;75.90;;;;;;5025425;28;20083;-79
2022/10/03 00:46:56;;;;;;;0.40;0.40;;;15.60;75.80;;;;;;5025533;28;20079;-79
2022/10/03 00:49:30;;;;;;;0.20;0.20;;;15.60;75.70;;;;;;5025373;28;20021;-79
2022/10/03 00:52:14;;;;;;;0.20;0.20;;;15.60;75.60;;;;;;5025171;28;20025;-79
2022/10/03 00:55:02;;;;;;;0.40;0.40;;;15.50;75.60;;;;;;5026759;28;20022;-78
2022/10/03 00:57:57;;;;;;;0.30;0.30;;;15.50;75.70;;;;;;5026578;28;20021;-79
2022/10/03 01:00:29;;;;;;;0.20;0.20;;;15.40;75.70;;;;;;5026782;28;20382;-79
2022/10/03 01:03:19;;;;;;;0.30;0.30;;;15.30;75.70;;;;;;5026638;28;20087;-78
2022/10/03 01:05:59;;;;;;;0.30;0.30;;;15.30;75.90;;;;;;5026488;28;20052;-78
2022/10/03 01:09:07;;;;;;;0.40;0.40;;;15.30;75.90;;;;;;5025441;28;20055;-78
2022/10/03 01:11:53;;;;;;;0.22;0.22;;;15.30;75.80;;;;;;5015628;28;20073;-79
2022/10/03 01:14:48;;;;;;;0.30;0.30;;;15.30;75.70;;;;;;5012284;28;20079;-79
2022/10/03 01:17:33;;;;;;;0.30;0.30;;;15.20;75.80;;;;;;5024952;28;20021;-79
2022/10/03 01:20:11;;;;;;;0.35;0.35;;;15.20;75.90;;;;;;5028990;28;20029;-75
2022/10/03 01:22:49;;;;;;;0.20;0.20;;;15.20;75.80;;;;;;5029914;28;20045;-74
2022/10/03 01:25:36;;;;;;;0.30;0.30;;;15.30;75.80;;;;;;5028856;28;20475;-75
2022/10/03 01:31:11;;;;;;;0.40;0.40;;;15.30;75.70;;;;;;5030001;28;20399;-75
2022/10/03 01:34:02;;;;;;;0.30;0.30;;;15.30;75.70;;;;;;5029850;28;20029;-75
2022/10/03 01:37:00;;;;;;;0.20;0.20;;;15.40;75.70;;;;;;5029757;28;20033;-75
2022/10/03 01:39:27;;;;;;;0.20;0.20;;;15.40;75.70;;;;;;4976744;28;1516358;-75
2022/10/03 01:42:02;;;;;;;0.40;0.40;;;15.40;75.80;;;;;;5029592;28;20155;-75
2022/10/03 01:44:43;;;;;;;0.10;0.10;;;15.40;75.70;;;;;;5030985;28;20455;-75
2022/10/03 01:47:30;;;;;;;0.20;0.20;;;15.40;75.60;;;;;;5029648;28;20029;-75
2022/10/03 01:50:04;;;;;;;0.30;0.30;;;15.30;75.60;;;;;;5031062;28;20135;-75
2022/10/03 01:52:40;;;;;;;0.20;0.20;;;15.40;75.70;;;;;;5029382;28;20037;-75
2022/10/03 01:55:25;;;;;;;0.28;0.28;;;15.30;75.70;;;;;;5030883;28;20021;-75
2022/10/03 01:58:08;;;;;;;0.13;0.13;;;15.40;75.70;;;;;;5029261;28;20021;-75
2022/10/03 02:01:06;;;;;;;0.10;0.10;;;15.40;75.70;;;;;;5029295;28;20517;-75
2022/10/03 02:03:48;;;;;;;0.10;0.10;;;15.40;75.70;;;;;;5026932;28;20094;-75
2022/10/03 02:06:33;;;;;;;0.00;0.00;;;15.40;75.70;;;;;;5030540;28;20426;-75
2022/10/03 02:09:33;;;;;;;0.10;0.10;;;15.40;75.80;;;;;;5029179;28;20104;-75
2022/10/03 02:12:20;;;;;;;0.10;0.10;;;15.40;75.80;;;;;;5030363;28;20018;-75
2022/10/03 02:14:46;;;;;;;;;;;15.40;75.80;;;;;;5029567;28;20025;-75
2022/10/03 02:17:42;;;;;;;0.10;0.10;;;15.40;75.80;;;;;;5030236;28;20426;-75
2022/10/03 02:20:33;;;;;;;0.10;0.10;;;15.40;75.80;;;;;;5030413;28;20092;-75
2022/10/03 02:22:59;;;;;;;0.10;0.10;;;15.40;75.70;;;;;;5030255;28;20574;-75
2022/10/03 02:25:34;;;;;;;0.10;0.10;;;15.40;75.60;;;;;;5030237;28;20063;-75
2022/10/03 02:28:12;;;;;;;0.20;0.20;;;15.30;75.90;;;;;;5030108;28;20029;-75
2022/10/03 02:31:24;;;;;;;0.15;0.15;;;15.20;75.70;;;;;;5029738;28;20033;-75
2022/10/03 02:34:08;;;;;;;0.17;0.17;;;15.20;75.60;;;;;;5016566;28;20034;-75
2022/10/03 02:36:43;;;;;;;0.20;0.20;;;15.20;75.60;;;;;;5030031;28;20321;-75
2022/10/03 02:39:14;;;;;;;0.25;0.25;;;15.20;75.60;;;;;;5044631;28;20044;-75
2022/10/03 02:41:51;;;;;;;0.30;0.30;;;15.20;75.60;;;;;;5031795;28;20547;-75
2022/10/03 02:44:39;;;;;;;0.30;0.30;;;15.20;76.00;;;;;;5049850;28;20021;-75
2022/10/03 02:47:32;;;;;;;0.20;0.20;;;15.20;75.60;;;;;;5049648;28;20044;-75
2022/10/03 02:50:26;;;;;;;0.28;0.28;;;15.20;75.50;;;;;;5031631;28;20490;-75
2022/10/03 02:53:21;;;;;;;0.20;0.20;;;15.10;75.40;;;;;;5049402;28;20475;-73
2022/10/03 02:56:20;;;;;;;0.20;0.20;;;15.10;75.50;;;;;;5049649;28;20028;-74
2022/10/03 02:59:22;;;;;;;0.20;0.20;;;15.00;75.50;;;;;;5031590;28;20029;-75
2022/10/03 03:01:58;;;;;;;0.22;0.22;;;14.90;75.60;;;;;;5049471;28;20445;-75
2022/10/03 03:05:00;;;;;;;0.30;0.30;;;14.90;75.70;;;;;;5049564;28;20040;-75
2022/10/03 03:07:58;;;;;;;0.35;0.35;;;14.90;75.70;;;;;;5031373;28;20032;-75
2022/10/03 03:10:45;;;;;;;0.40;0.40;;;14.90;75.70;;;;;;5031379;28;20024;-75
2022/10/03 03:13:21;;;;;;;;;;;14.90;75.60;;;;;;5031730;28;20119;-75
2022/10/03 03:16:20;;;;;;;0.20;0.20;;;14.90;75.60;;;;;;5031320;28;19904;-75
2022/10/03 03:18:46;;;;;;;0.20;0.20;;;14.70;75.40;;;;;;5031290;28;20029;-75
2022/10/03 03:21:36;;;;;;;0.30;0.30;;;14.60;75.50;;;;;;5031156;28;20273;-75
2022/10/03 03:24:39;;;;;;;0.40;0.40;;;14.60;75.70;;;;;;5048943;28;20454;-75
2022/10/03 03:27:19;;;;;;;0.60;0.60;;;14.50;75.80;;;;;;5048865;28;20401;-75
2022/10/03 03:30:11;;;;;;;0.40;0.40;;;14.50;75.80;;;;;;5031091;28;20427;-75
2022/10/03 03:32:39;;;;;;;0.50;0.50;;;14.40;75.80;;;;;;5048888;28;20039;-74
2022/10/03 03:35:24;;;;;;;0.50;0.50;;;14.40;75.80;;;;;;5048751;28;20029;-75
2022/10/03 03:38:34;;;;;;;0.43;0.43;;;14.40;75.80;;;;;;5030416;28;20126;-75
2022/10/03 03:41:18;;;;;;;0.40;0.40;;;14.30;75.80;;;;;;5048239;28;20060;-75
2022/10/03 03:44:05;;;;;;;0.50;0.50;;;14.20;75.80;;;;;;5030619;28;20035;-75
2022/10/03 03:47:00;;;;;;;0.50;0.50;;;14.20;75.90;;;;;;5048465;28;20017;-74
2022/10/03 03:49:54;;;;;;;0.40;0.40;;;14.20;75.90;;;;;;5010018;28;20029;-75
2022/10/03 03:52:38;;;;;;;0.70;0.70;;;14.20;75.90;;;;;;5030554;28;20021;-75
2022/10/03 03:55:27;;;;;;;0.60;0.60;;;14.20;75.70;;;;;;5030410;28;20116;-79
2022/10/03 03:58:12;;;;;;;0.70;0.70;;;14.10;75.70;;;;;;5048315;28;20029;-79
2022/10/03 04:00:53;;;;;;;0.70;0.70;;;14.10;75.70;;;;;;5030360;28;20127;-79
2022/10/03 04:03:37;;;;;;;0.50;0.50;;;14.10;75.70;;;;;;5048065;28;20017;-79
2022/10/03 04:06:35;;;;;;;0.70;0.70;;;14.10;75.60;;;;;;5048013;28;20413;-79
2022/10/03 04:09:06;;;;;;;0.70;0.70;;;14.10;75.60;;;;;;5048135;28;20099;-79
2022/10/03 04:11:56;;;;;;;0.45;0.45;;;14.10;75.60;;;;;;5030035;28;20170;-79
2022/10/03 04:14:49;;;;;;;0.80;0.80;;;14.20;75.50;;;;;;5030179;28;20661;-79
2022/10/03 04:20:35;;;;;;;0.57;0.57;;;14.20;75.50;;;;;;5048020;28;20340;-75
2022/10/03 04:23:17;;;;;;;0.70;0.70;;;14.20;75.50;;;;;;5030207;28;20029;-75
2022/10/03 04:25:59;;;;;;;0.70;0.70;;;14.10;75.50;;;;;;5047970;28;20024;-75
2022/10/03 04:28:46;;;;;;;0.50;0.50;;;14.20;75.50;;;;;;5030375;28;20055;-75
2022/10/03 04:31:31;;;;;;;0.60;0.60;;;14.20;75.50;;;;;;5047638;28;20040;-76
2022/10/03 04:34:02;;;;;;;0.50;0.50;;;14.20;75.50;;;;;;5047610;28;20476;-75
2022/10/03 04:36:47;;;;;;;0.68;0.68;;;14.20;75.50;;;;;;5047638;28;20079;-75
2022/10/03 04:39:29;;;;;;;0.50;0.50;;;14.20;75.50;;;;;;5029586;28;20132;-75
2022/10/03 04:42:01;;;;;;;0.60;0.60;;;14.20;75.60;;;;;;5047655;28;20528;-75
2022/10/03 04:44:39;;;;;;;0.60;0.60;;;14.30;75.60;;;;;;5047569;28;20103;-75
2022/10/03 04:47:13;;;;;;;0.80;0.80;;;14.30;75.70;;;;;;5047410;28;20029;-74
2022/10/03 04:50:11;;;;;;;0.80;0.80;;;14.30;75.70;;;;;;5047461;28;20025;-75
2022/10/03 04:53:08;;;;;;;0.60;0.60;;;14.30;75.60;;;;;;5029522;28;20510;-75
2022/10/03 04:55:42;;;;;;;0.65;0.65;;;14.30;75.60;;;;;;5042646;28;20384;-75
2022/10/03 04:58:38;;;;;;;0.55;0.55;;;14.30;75.80;;;;;;5047353;28;20116;-75
2022/10/03 05:01:53;;;;;;;0.70;0.70;;;14.30;75.80;;;;;;5047508;28;20029;-75
2022/10/03 05:04:57;;;;;;;0.50;0.50;;;14.20;75.70;;;;;;4931105;29;20065;-75
2022/10/03 05:07:40;;;;;;;0.60;0.60;;;14.20;75.80;;;;;;4915651;28;20429;-75
2022/10/03 05:10:24;;;;;;;0.50;0.50;;;14.20;75.70;;;;;;5031126;28;20041;-79
2022/10/03 05:12:54;;;;;;;0.50;0.50;;;14.30;75.70;;;;;;5029215;28;20028;-78
2022/10/03 05:15:27;;;;;;;0.60;0.60;;;14.30;75.60;;;;;;5047586;28;20055;-79
2022/10/03 05:18:21;;;;;;;0.60;0.60;;;14.30;75.50;;;;;;5046940;28;20068;-79
2022/10/03 05:20:57;;;;;;;0.50;0.50;;;14.30;75.60;;;;;;5029340;28;20038;-79
2022/10/03 05:23:37;;;;;;;0.30;0.30;;;14.40;75.60;;;;;;5047077;28;20104;-79
2022/10/03 05:26:33;;;;;;;0.40;0.40;;;14.40;75.70;;;;;;5047377;28;20366;-79
2022/10/03 05:29:30;;;;;;;0.40;0.40;;;14.40;75.70;;;;;;5046748;28;20027;-79
2022/10/03 05:32:16;;;;;;;0.30;0.30;;;14.50;75.60;;;;;;5028947;28;20052;-79
2022/10/03 05:34:51;;;;;;;0.30;0.30;;;14.60;75.60;;;;;;5046784;28;20017;-79
2022/10/03 05:37:28;;;;;;;0.20;0.20;;;14.60;75.50;;;;;;5047096;28;20099;-79
2022/10/03 05:40:16;;;;;;;0.10;0.10;;;14.60;75.50;;;;;;5047061;28;20120;-79
2022/10/03 05:42:49;;;;;;;0.10;0.10;;;14.60;75.40;;;;;;5047009;28;20021;-79
2022/10/03 05:45:29;;;;;;;0.10;0.10;;;14.60;75.30;;;;;;5028797;28;20112;-79
2022/10/03 05:48:25;;;;;;;0.10;0.10;;;14.60;75.30;;;;;;5046700;28;20025;-79
2022/10/03 05:51:11;;;;;;;0.10;0.10;;;14.60;75.40;;;;;;5046797;28;20024;-75
2022/10/03 05:53:55;;;;;;;0.10;0.10;;;14.60;75.50;;;;;;5046656;28;20423;-78
2022/10/03 05:56:41;;;;;;;0.10;0.10;;;14.60;75.60;;;;;;5028290;28;20053;-79
2022/10/03 05:59:29;;;;;;;0.00;0.00;;;14.60;75.70;;;;;;5028928;28;20584;-79
2022/10/03 06:02:27;;;;;;;0.00;0.00;;;14.60;75.60;;;;;;5028558;28;20037;-78
2022/10/03 06:04:56;;;;;;;;;;;14.70;75.60;;;;;;5047945;28;20105;-79
2022/10/03 06:07:44;;;;;;;0.00;0.00;;;14.70;75.60;;;;;;5050161;28;19951;-79
2022/10/03 06:10:32;;;;;;;0.03;0.03;;;14.70;75.50;;;;;;5050169;28;20368;-79
2022/10/03 06:13:40;;;;;;;0.00;0.00;;;14.70;75.60;;;;;;5050093;28;20021;-79
2022/10/03 06:16:13;;;;;;;0.00;0.00;;;14.70;75.50;;;;;;5031763;28;20435;-79
2022/10/03 06:19:12;;;;;;;0.00;0.00;;;14.70;75.50;;;;;;5050155;28;20025;-79
2022/10/03 06:22:16;;;;;;;0.00;0.00;;;14.70;75.50;;;;;;5032224;28;20043;-79
2022/10/03 06:25:20;;;;;;;0.00;0.00;;;14.80;75.50;;;;;;5032228;28;20415;-78
2022/10/03 06:28:07;;;;;;;0.00;0.00;;;14.80;75.50;;;;;;5049857;28;20063;-78
2022/10/03 06:30:57;;;;;;;0.00;0.00;;;14.80;75.50;;;;;;5050091;28;20025;-79
2022/10/03 06:33:38;;;;;;;0.00;0.00;;;14.80;75.50;;;;;;5049709;28;20029;-81
2022/10/03 06:36:19;;;;;;;0.00;0.00;;;14.80;75.50;;;;;;5049197;28;20105;-79
2022/10/03 06:39:06;;;;;;;0.00;0.00;;;14.80;75.50;;;;;;5049128;28;20121;-78
2022/10/03 06:41:58;;;;;;;0.00;0.00;;;14.70;75.50;;;;;;5049492;28;20021;-78
2022/10/03 06:44:39;;;;;;;0.00;0.00;;;14.70;75.50;;;;;;5044385;28;20402;-78
2022/10/03 06:47:39;;;;;;;0.00;0.00;;;14.70;75.60;;;;;;5049516;28;20049;-77
2022/10/03 06:50:17;;;;;;;0.00;0.00;;;14.70;75.70;;;;;;5031437;28;20032;-78
2022/10/03 06:53:17;;;;;;;0.00;0.00;;;14.70;75.60;;;;;;5048930;28;20128;-77
2022/10/03 06:56:05;;;;;;;0.00;0.00;;;14.70;75.50;;;;;;5031200;28;20021;-77
2022/10/03 06:58:49;;;;;;;0.00;0.00;;;14.80;75.60;;;;;;5049254;28;20475;-77
2022/10/03 07:01:33;;;;;;;0.00;0.00;;;14.80;75.50;;;;;;5030682;28;20381;-78
2022/10/03 07:04:19;;;;;;;0.00;0.00;;;14.80;75.50;;;;;;5048911;28;20036;-78
2022/10/03 07:06:58;;;;;;;0.00;0.00;;;14.80;75.50;;;;;;5048691;28;20029;-79
2022/10/03 07:09:53;;;;;;;0.00;0.00;;;14.80;75.60;;;;;;5048855;28;20033;-79
2022/10/03 07:12:32;;;;;;;0.00;0.00;;;14.90;75.60;;;;;;5030964;28;20041;-78
2022/10/03 07:15:18;;;;;;;0.00;0.00;;;14.90;75.50;;;;;;5048764;28;20108;-78
2022/10/03 07:18:13;;;;;;;0.00;0.00;;;15.00;75.50;;;;;;5029598;28;20020;-78
2022/10/03 07:20:45;;;;;;;0.00;0.00;;;15.00;75.50;;;;;;5048974;28;20035;-78
2022/10/03 07:23:17;;;;;;;0.00;0.00;;;15.10;75.50;;;;;;5048661;28;20029;-78
2022/10/03 07:26:10;;;;;;;0.00;0.00;;;15.10;75.40;;;;;;5030504;28;20032;-78
2022/10/03 07:29:18;;;;;;;0.00;0.00;;;15.20;75.40;;;;;;5030857;28;20478;-78
2022/10/03 07:32:04;;;;;;;0.75;0.10;;;15.20;75.40;;;;;;5048917;28;20025;-79
2022/10/03 07:35:07;;;;;;;0.00;0.00;;;15.20;75.40;;;;;;5030725;28;20252;-78
2022/10/03 07:40:57;;;;;;;0.00;0.00;;;15.20;75.50;;;;;;5048750;28;20036;-78
2022/10/03 07:43:41;;;;;;;0.00;0.00;;;15.20;75.50;;;;;;5030125;28;20078;-78
2022/10/03 07:46:41;;;;;;;0.00;0.00;;;15.20;75.60;;;;;;5029859;28;20020;-78
2022/10/03 07:49:31;;;;;;;0.00;0.00;;;15.20;75.60;;;;;;5048248;28;20021;-78
2022/10/03 07:52:22;;;;;;;0.00;0.00;;;15.20;75.70;;;;;;5030067;28;20036;-79
2022/10/03 07:55:08;;;;;;;0.00;0.00;;;15.30;75.60;;;;;;5047331;28;20029;-79
2022/10/03 07:58:12;;;;;;;0.00;0.00;;;15.30;75.70;;;;;;5029829;28;20017;-79
2022/10/03 08:01:08;;;;;;;0.00;0.00;;;15.30;75.70;;;;;;5047732;28;20327;-79
2022/10/03 08:04:14;;;;;;;0.00;0.00;;;15.40;75.60;;;;;;5047358;28;20066;-78
2022/10/03 08:07:14;;;;;;;0.00;0.00;;;15.40;75.60;;;;;;5037049;28;20441;-79
2022/10/03 08:09:56;;;;;;;0.00;0.00;;;15.40;76.10;;;;;;5039148;28;20028;-78
2022/10/03 08:12:53;;;;;;;0.00;0.00;;;15.50;75.60;;;;;;5037155;28;20035;-78
2022/10/03 08:15:25;;;;;;;0.00;0.00;;;15.50;75.50;;;;;;5036591;28;20329;-78
2022/10/03 08:18:00;;;;;;;0.00;0.00;;;15.50;75.50;;;;;;5018520;28;20049;-78
2022/10/03 08:20:37;;;;;;;0.00;0.00;;;15.50;75.50;;;;;;5033315;28;20042;-78
2022/10/03 08:23:18;;;;;;;0.00;0.00;;;15.50;75.50;;;;;;5046406;28;20029;-79
2022/10/03 08:26:02;;;;;;;0.00;0.00;;;15.50;75.60;;;;;;5015743;28;20044;-72
2022/10/03 08:28:34;;;;;;;0.00;0.00;;;15.50;75.60;;;;;;5016814;28;20512;-78
2022/10/03 08:31:33;;;;;;;0.00;0.00;;;15.60;75.70;;;;;;5035919;28;20507;-81
2022/10/03 08:34:13;;;;;;;0.00;0.00;;;15.60;75.70;;;;;;5037859;28;20096;-79
2022/10/03 08:36:45;;;;;;;0.00;0.00;;;15.70;75.80;;;;;;5040956;28;20021;-80
2022/10/03 08:39:18;;;;;;;0.00;0.00;;;15.70;75.70;;;;;;5019078;28;20080;-80
2022/10/03 08:41:52;;;;;;;0.00;0.00;;;15.80;75.80;;;;;;5032243;28;20356;-80
2022/10/03 08:44:56;;;;;;;0.00;0.00;;;15.90;75.80;;;;;;5019414;28;20444;-79
2022/10/03 08:47:41;;;;;;;0.00;0.00;;;16.00;75.80;;;;;;5033122;28;20446;-79
2022/10/03 08:50:37;;;;;;;0.00;0.00;;;16.00;75.70;;;;;;5034181;28;20530;-78
2022/10/03 08:53:34;;;;;;;0.00;0.00;;;16.10;75.80;;;;;;5015217;28;20025;-79
2022/10/03 08:56:23;;;;;;;0.00;0.00;;;16.10;75.60;;;;;;5019528;28;20023;-78
2022/10/03 08:59:32;;;;;;;0.00;0.00;;;16.10;75.60;;;;;;5037433;28;20032;-78
2022/10/03 09:02:06;;;;;;;0.00;0.00;;;16.10;75.70;;;;;;5035393;28;20033;-78
2022/10/03 09:05:00;;;;;;;0.00;0.00;;;16.20;75.60;;;;;;5035222;28;20091;-79
2022/10/03 09:07:47;;;;;;;0.00;0.00;;;16.20;75.70;;;;;;5018058;28;20144;-78
2022/10/03 09:10:31;;;;;;;0.00;0.00;;;16.20;75.70;;;;;;5018953;28;20399;-78
2022/10/03 09:13:48;;;;;;;0.00;0.00;;;16.20;75.60;;;;;;5017219;28;20029;-78
2022/10/03 09:16:41;;;;;;;0.00;0.00;;;16.20;75.60;;;;;;5031639;28;20028;-79
2022/10/03 09:19:14;;;;;;;0.00;0.00;;;16.20;75.70;;;;;;5035762;28;20025;-79
2022/10/03 09:21:49;;;;;;;0.00;0.00;;;16.20;75.70;;;;;;5033347;28;20422;-78
2022/10/03 09:24:32;;;;;;;0.00;0.00;;;16.20;75.80;;;;;;5017033;28;20364;-78
2022/10/03 09:27:00;;;;;;;0.00;0.00;;;16.20;75.80;;;;;;5032295;28;20491;-79
2022/10/03 09:29:58;;;;;;;0.00;0.00;;;16.30;75.90;;;;;;5019750;28;20021;-79
2022/10/03 09:32:36;;;;;;;;;;;16.40;75.90;;;;;;5018867;28;20045;-79
2022/10/03 09:35:24;;;;;;;;;;;16.50;75.80;;;;;;5029829;28;19916;-79
2022/10/03 09:38:13;;;;;;;0.00;0.00;;;16.50;75.70;;;;;;5036044;28;19923;-79
2022/10/03 09:41:20;;;;;;;0.00;0.00;;;16.50;75.70;;;;;;5031824;28;20086;-77
2022/10/03 09:44:10;;;;;;;0.00;0.00;;;16.60;75.60;;;;;;5018730;28;20382;-78
2022/10/03 09:47:21;;;;;;;0.00;0.00;;;16.50;75.60;;;;;;5030397;28;20075;-78
2022/10/03 09:50:20;;;;;;;0.00;0.00;;;16.50;75.60;;;;;;5030644;28;20068;-79
2022/10/03 09:53:07;;;;;;;0.00;0.00;;;16.50;75.60;;;;;;5013525;28;20025;-79
2022/10/03 09:55:39;;;;;;;0.00;0.00;;;16.40;75.60;;;;;;5031934;28;20456;-79
2022/10/03 09:58:36;;;;;;;0.00;0.00;;;16.40;75.50;;;;;;5031963;28;20021;-79
2022/10/03 10:01:22;;;;;;;0.00;0.00;;;16.30;75.50;;;;;;5032059;28;20034;-78
2022/10/03 10:04:25;;;;;;;0.00;0.00;;;16.20;75.60;;;;;;5033540;28;20256;-79
2022/10/03 10:07:12;;;;;;;0.00;0.00;;;16.20;75.70;;;;;;5028391;28;20154;-79
2022/10/03 10:09:44;;;;;;;0.00;0.00;;;16.20;75.80;;;;;;5051370;28;20096;-79
2022/10/03 10:12:15;;;;;;;0.00;0.00;;;16.20;75.80;;;;;;5051937;28;20030;-79
2022/10/03 10:15:12;;;;;;;0.00;0.00;;;16.30;75.90;;;;;;5051553;28;20382;-79
2022/10/03 10:18:01;;;;;;;0.00;0.00;;;16.30;75.80;;;;;;5033665;28;20089;-78
2022/10/03 10:20:53;;;;;;;0.00;0.00;;;16.40;75.80;;;;;;4983266;28;20029;-79
2022/10/03 10:23:43;;;;;;;0.00;0.00;;;16.40;75.80;;;;;;5021675;28;20033;-79
2022/10/03 10:26:41;;;;;;;0.17;0.17;;;16.50;75.80;;;;;;5051716;28;20425;-79
2022/10/03 10:29:30;;;;;;;0.00;0.00;;;16.50;75.80;;;;;;5051692;28;20024;-79
2022/10/03 10:32:14;;;;;;;0.00;0.00;;;16.60;75.80;;;;;;5050675;28;20483;-78
2022/10/03 10:34:45;;;;;;;0.00;0.00;;;16.60;75.80;;;;;;5045756;28;20173;-79
2022/10/03 10:37:23;;;;;;;0.00;0.00;;;16.70;75.80;;;;;;5033533;28;20039;-79
2022/10/03 10:40:30;;;;;;;0.00;0.00;;;16.80;75.80;;;;;;5029840;28;20037;-79
2022/10/03 10:43:33;;;;;;;0.00;0.00;;;16.80;75.80;;;;;;5035497;28;20029;-79
2022/10/03 10:46:20;;;;;;;0.00;0.00;;;16.90;76.00;;;;;;5035468;28;20026;-79
2022/10/03 10:49:21;;;;;;;;;;;17.20;76.50;;;;;;5012044;28;20022;-80
2022/10/03 10:52:18;;;;;;;0.00;0.00;;;17.30;75.90;;;;;;4932282;29;19915;-79
2022/10/03 10:55:21;;;;;;;0.00;0.00;;;17.50;75.80;;;;;;5012177;28;20088;-79
2022/10/03 10:58:35;;;;;;;0.00;0.00;;;17.70;75.80;;;;;;5011980;28;20026;-79
2022/10/03 11:01:19;;;;;;;0.00;0.00;;;18.00;75.90;;;;;;5011999;28;20816;-79
2022/10/03 11:04:03;;;;;;;0.00;0.00;;;18.30;75.90;;;;;;5011621;28;20492;-79
2022/10/03 11:06:32;;;;;;;0.00;0.00;;;18.50;75.70;;;;;;5011333;28;20026;-79
2022/10/03 11:09:03;;;;;;;0.00;0.00;;;18.50;75.50;;;;;;5011993;28;20033;-79
2022/10/03 11:11:50;;;;;;;0.00;0.00;;;18.70;75.60;;;;;;5011250;28;20543;-79
2022/10/03 11:14:29;;;;;;;0.00;0.00;;;18.80;75.50;;;;;;5011332;28;20049;-77
2022/10/03 11:17:13;;;;;;;0.00;0.00;;;18.90;75.60;;;;;;4993744;28;20018;-79
2022/10/03 11:20:16;;;;;;;0.00;0.00;;;18.90;75.80;;;;;;5011231;28;20419;-78
2022/10/03 11:23:02;;;;;;;0.00;0.00;;;19.10;75.90;;;;;;5011260;28;20435;-79
2022/10/03 11:25:49;;;;;;;0.00;0.00;;;19.20;75.60;;;;;;4993980;28;20026;-77
2022/10/03 11:28:46;;;;;;;0.00;0.00;;;19.20;75.30;;;;;;5011191;28;20028;-79
2022/10/03 11:31:41;;;;;;;0.00;0.00;;;19.00;75.30;;;;;;5011574;28;20025;-79
2022/10/03 11:34:26;;;;;;;0.00;0.00;;;18.90;75.50;;;;;;5011333;28;20029;-79
2022/10/03 11:37:07;;;;;;;0.00;0.00;;;18.80;75.50;;;;;;4993563;28;20569;-78
2022/10/03 11:40:06;;;;;;;0.00;0.00;;;18.70;75.60;;;;;;5011151;28;20045;-79
2022/10/03 11:42:53;;;;;;;0.00;0.00;;;18.70;75.80;;;;;;5010989;28;20364;-80
2022/10/03 11:45:35;;;;;;;0.00;0.00;;;18.80;75.80;;;;;;5011608;28;20041;-78
2022/10/03 11:48:22;;;;;;;0.00;0.00;;;18.90;75.80;;;;;;5010813;28;20099;-77
2022/10/03 11:51:17;;;;;;;0.00;0.00;;;18.90;75.60;;;;;;4992583;28;20083;-75
2022/10/03 11:53:52;;;;;;;0.00;0.00;;;18.80;75.60;;;;;;5010037;28;20566;-77
2022/10/03 11:56:33;;;;;;;0.00;0.00;;;18.80;75.60;;;;;;4993228;28;20041;-79
2022/10/03 11:59:21;;;;;;;0.00;0.00;;;18.80;75.70;;;;;;4993589;28;20113;-80
2022/10/03 12:02:23;;;;;;;0.00;0.00;;;18.90;75.70;;;;;;4993093;28;20034;-78
2022/10/03 12:05:05;;;;;;;0.00;0.00;;;19.00;75.90;;;;;;5010663;28;20430;-76
2022/10/03 12:11:05;;;;;;;0.00;0.00;;;19.60;76.60;;;;;;5011541;28;20118;-77
2022/10/03 12:13:52;;;;;;;0.00;0.00;;;20.20;76.00;;;;;;4991267;28;20050;-78
2022/10/03 12:17:04;;;;;;;0.00;0.00;;;20.30;75.50;;;;;;5010438;28;20623;-81
2022/10/03 12:19:36;;;;;;;0.00;0.00;;;20.30;75.30;;;;;;4973825;28;20022;-79
2022/10/03 12:22:08;;;;;;;0.00;0.00;;;20.20;75.30;;;;;;5010009;28;20029;-73
2022/10/03 12:24:41;;;;;;;0.00;0.00;;;20.10;75.20;;;;;;5008940;28;20044;-73
2022/10/03 12:27:41;;;;;;;0.00;0.00;;;20.00;75.30;;;;;;5008727;28;20079;-72
2022/10/03 12:30:15;;;;;;;0.00;0.00;;;19.90;75.70;;;;;;4980764;28;20033;-72
2022/10/03 12:32:48;;;;;;;0.00;0.00;;;20.00;76.10;;;;;;4991074;28;20028;-72
2022/10/03 12:35:39;;;;;;;0.00;0.00;;;20.30;76.70;;;;;;5008605;28;20017;-73
2022/10/03 12:38:40;;;;;;;0.00;0.00;;;20.70;76.40;;;;;;4991444;28;20044;-74
2022/10/03 12:41:19;;;;;;;0.00;0.00;;;20.80;75.80;;;;;;4994217;28;20074;-74
2022/10/03 12:43:45;;;;;;;0.00;0.00;;;20.90;75.80;;;;;;4991310;28;20022;-72
2022/10/03 12:46:14;;;;;;;;;;;20.70;75.40;;;;;;4991038;28;20103;-73
2022/10/03 12:48:46;;;;;;;0.00;0.00;;;20.50;75.50;;;;;;5008636;28;20346;-73
2022/10/03 12:51:30;;;;;;;0.00;0.00;;;20.30;75.60;;;;;;5008007;28;20018;-72
2022/10/03 12:54:14;;;;;;;0.00;0.00;;;20.20;75.60;;;;;;4990788;28;20022;-76
2022/10/03 12:56:40;;;;;;;0.00;0.00;;;20.10;75.70;;;;;;4990252;28;20026;-73
2022/10/03 12:59:37;;;;;;;0.00;0.00;;;19.90;75.60;;;;;;5008687;28;20050;-74
2022/10/03 13:02:23;;;;;;;0.00;0.00;;;19.80;75.90;;;;;;5008431;28;20432;-71
2022/10/03 13:05:08;;;;;;;0.00;0.00;;;19.70;76.00;;;;;;5008054;28;20030;-72
2022/10/03 13:07:56;;;;;;;0.00;0.00;;;19.80;76.30;;;;;;5008164;28;20210;-73
2022/10/03 13:10:31;;;;;;;0.00;0.00;;;20.00;76.40;;;;;;5008652;28;20122;-75
2022/10/03 13:13:15;;;;;;;0.00;0.00;;;20.10;76.30;;;;;;4989344;28;20026;-72
2022/10/03 13:15:56;;;;;;;0.00;0.00;;;20.20;76.40;;;;;;4994952;28;20076;-74
2022/10/03 13:18:50;;;;;;;0.00;0.00;;;20.30;76.00;;;;;;4994965;28;20421;-74
2022/10/03 13:22:05;;;;;;;0.00;0.00;;;20.30;75.80;;;;;;4994653;28;20030;-75
2022/10/03 13:25:01;;;;;;;0.00;0.00;;;20.30;75.80;;;;;;4994690;28;20070;-75
2022/10/03 13:27:36;;;;;;;0.00;0.00;;;20.30;75.80;;;;;;4978076;28;20033;-75
2022/10/03 13:30:17;;;;;;;0.00;0.00;;;20.20;75.50;;;;;;4994649;28;20468;-73
2022/10/03 13:32:49;;;;;;;0.00;0.00;;;20.10;76.10;;;;;;5012298;28;20104;-71
2022/10/03 13:38:57;;;;;;;0.00;0.00;;;19.70;75.60;;;;;;5011033;28;20069;-72
2022/10/03 13:41:44;;;;;;;0.00;0.00;;;19.60;75.90;;;;;;5010968;28;20050;-72
2022/10/03 13:44:24;;;;;;;0.00;0.00;;;19.40;75.90;;;;;;5011111;28;20041;-72
2022/10/03 13:47:15;;;;;;;0.00;0.00;;;19.40;76.30;;;;;;5011040;28;20034;-72
2022/10/03 13:50:05;;;;;;;0.00;0.00;;;19.60;76.50;;;;;;4993111;28;20034;-73
2022/10/03 13:52:48;;;;;;;0.00;0.00;;;19.80;76.10;;;;;;4992327;28;20485;-72
2022/10/03 13:55:44;;;;;;;0.00;0.00;;;19.80;75.90;;;;;;4992363;28;20448;-73
2022/10/03 13:58:32;;;;;;;0.00;0.00;;;19.60;75.70;;;;;;5011160;28;20029;-73
2022/10/03 14:01:10;;;;;;;0.00;0.00;;;19.50;75.80;;;;;;4993560;28;20065;-73
2022/10/03 14:03:57;;;;;;;0.03;0.03;;;19.50;76.00;;;;;;5000346;28;20032;-74
2022/10/03 14:06:30;;;;;;;0.00;0.00;;;19.50;75.80;;;;;;5031537;28;20036;-74
2022/10/03 14:09:40;;;;;;;0.00;0.00;;;19.60;76.20;;;;;;5031330;28;20018;-75
2022/10/03 14:12:18;;;;;;;0.00;0.00;;;19.90;76.30;;;;;;5028893;28;20037;-76
2022/10/03 14:15:14;;;;;;;0.00;0.00;;;20.10;75.70;;;;;;5013655;28;20025;-75
2022/10/03 14:17:58;;;;;;;0.00;0.00;;;20.00;75.50;;;;;;5014584;28;20333;-75
2022/10/03 14:20:24;;;;;;;0.00;0.00;;;19.90;75.60;;;;;;5013633;28;20021;-76
2022/10/03 14:23:08;;;;;;;0.00;0.00;;;19.80;75.50;;;;;;5031338;28;20033;-73
2022/10/03 14:25:44;;;;;;;0.00;0.00;;;19.70;75.70;;;;;;5030310;28;20075;-72
2022/10/03 14:28:25;;;;;;;0.00;0.00;;;19.70;75.80;;;;;;5030898;28;20026;-75
2022/10/03 14:30:51;;;;;;;0.00;0.00;;;19.60;75.80;;;;;;5031094;28;20021;-74
2022/10/03 14:33:22;;;;;;;0.00;0.00;;;19.60;75.90;;;;;;5036281;28;20025;-73
2022/10/03 14:35:54;;;;;;;0.00;0.00;;;19.70;76.10;;;;;;5023702;28;20075;-75
2022/10/03 14:38:57;;;;;;;0.00;0.00;;;19.70;76.00;;;;;;5033630;28;20034;-73
2022/10/03 14:41:31;;;;;;;0.00;0.00;;;19.70;75.90;;;;;;5043375;28;20044;-74
2022/10/03 14:44:12;;;;;;;0.00;0.00;;;19.80;76.00;;;;;;5044405;28;20064;-75